Dublin, Ireland

9:55 AM GMT on February 11, 2016 (GMT +0000)
Paulie - Swords West | | Change Station
CLOSE
Current Station
Personal Weather Station
Location: Swords, DUBLIN
Elevation: 138 ft
Nearby Weather Stations

Elev 138 ft 53.46 °N, 6.25 °W | Updated 16 seconds ago

Partly Cloudy
Partly Cloudy
45.3 °F
Feels Like 45 °F
N
0.0
Wind Variable Wind from SSW
Gusts 0.0 mph

Today
High -- | Low -- °F
--% Chance of Precip.
Yesterday
High -- | Low -- °F
Precip. -- in
Pressure 29.59 in
Visibility 6.2 miles
Clouds Few 1700 ft
Windchill 45 °F
Dew Point 45 °F
Humidity 98%
Rainfall 0.02 in
Snow Depth Not available.
7:52 AM 5:26 PM
Waxing Crescent, 11% visible
METAR EIDW 110930Z 30004KT 9999 FEW017 01/01 Q1002 NOSIG
Pressure 29.59 in
Visibility 6.2 miles
Clouds Few 1700 ft
Windchill 45 °F
Dew Point 45 °F
Humidity 98%
Rainfall 0.02 in
Snow Depth Not available.
7:52 AM 5:26 PM
Waxing Crescent, 11% visible
METAR EIDW 110930Z 30004KT 9999 FEW017 01/01 Q1002 NOSIG

10-Day Weather Forecast

Almanac

Astronomy

Feb. 11, 2016 Rise Set
Actual Time
Civil Twilight
Nautical Twilight
Astronomical Twilight
Moon
Length of Visible Light
Length of Day
Tomorrow will be .
, % of the Moon is Illuminated

Today's Extremes

Country Highs Country Lows

Community

WunderPhotos

Upload Photos

1,892,030 photos uploaded!

WunderBlog® & News

Nearby

Air Quality

  Air Quality AQ Index Pollutant
Not available.

Snow Depth

Station Depth Elevation

Earthquake Activity

City Distance Mag. Time & Date
Minimum magnitude displayed is 2.5.

Coastal Water Temperatures

Place Temperature

Stations

Nearby Weather Stations

Station Location Temp. Windchill Dew Point Humidity Wind Precip. Elev Updated Type